Latest Weather Observations for Truscott

IDD60801

Issued at 8:41 am CST Sunday 18 April 2021 (issued every 10 minutes, with the page automatically refreshed every 10 minutes)

About weather observations | Map of weather stations | Latest weather observations for NT | Other Formats
Station Details ID: 001020 Name: TRUSCOTT Lat: -14.09 Lon: 126.39 Height: 51.0 m
Data from the previous 72 hours. | See also: Recent months at Truscott
Date/Time
CST
Temp
°C
App
Temp
°C
Dew
Point
°C
Rel
Hum
%
Delta-T
°C
Wind Press
QNH
hPa
Press
MSL
hPa
Rain since
9am
mm
Dir  Spd
km/h
Gust
km/h
Spd
kts
Gust
kts
18/08:30am 26.5 23.5 10.6 37 8.9 SE 17 24 9 13 1013.3 1012.9 0.0
18/08:00am 25.4 23.3 11.2 41 8.0 SE 13 20 7 11 1013.0 1012.6 0.0
18/07:30am 24.8 23.0 10.7 41 7.9 SE 11 17 6 9 1012.8 1012.3 0.0
18/07:00am 24.3 22.9 10.9 43 7.5 SE 9 17 5 9 1012.5 1012.1 0.0
18/06:30am 24.2 22.9 11.2 44 7.3 SSE 9 13 5 7 1012.2 1011.8 0.0
18/06:00am 24.3 23.0 11.3 44 7.3 SSE 9 13 5 7 1012.1 1011.7 0.0
18/05:30am 24.3 23.1 11.6 45 7.2 SE 9 15 5 8 1011.7 1011.3 0.0
18/05:00am 24.3 23.1 11.6 45 7.2 SE 9 11 5 6 1011.6 1011.2 0.0
18/04:30am 23.9 23.2 11.9 47 6.8 SE 7 11 4 6 1011.6 1011.1 0.0
18/04:00am 24.5 23.4 11.8 45 7.2 SE 9 11 5 6 1011.6 1011.2 0.0
18/03:30am 24.5 23.7 11.8 45 7.2 SE 7 11 4 6 1011.6 1011.2 0.0
18/03:00am 24.6 23.5 11.9 45 7.2 SE 9 13 5 7 1011.8 1011.4 0.0
18/02:30am 24.8 23.8 12.4 46 7.1 SSE 9 11 5 6 1012.1 1011.7 0.0
18/02:00am 24.6 24.2 12.9 48 6.8 SE 7 11 4 6 1012.4 1012.0 0.0
18/01:30am 25.3 25.0 13.2 47 7.1 SE 7 11 4 6 1012.6 1012.1 0.0
18/01:00am 24.9 25.0 14.4 52 6.2 SE 7 9 4 5 1012.8 1012.4 0.0
18/12:30am 25.3 25.4 14.4 50 6.5 SE 7 9 4 5 1013.0 1012.6 0.0
18/12:00am 25.3 25.5 14.7 51 6.3 ESE 7 11 4 6 1012.9 1012.5 0.0
 
Date/Time
CST
Temp
°C
App
Temp
°C
Dew
Point
°C
Rel
Hum
%
Delta-T
°C
Wind Press
QNH
hPa
Press
MSL
hPa
Rain since
9am
mm
Dir  Spd
km/h
Gust
km/h
Spd
kts
Gust
kts
17/11:30pm 25.2 25.6 15.2 54 6.0 SE 7 9 4 5 1013.0 1012.6 0.0
17/11:00pm 24.3 25.4 17.1 64 4.5 E 7 9 4 5 1013.0 1012.6 0.0
17/10:30pm 25.1 26.0 16.5 59 5.3 E 7 9 4 5 1013.1 1012.6 0.0
17/10:00pm 26.3 27.4 17.1 57 5.7 ESE 7 9 4 5 1013.0 1012.6 0.0
17/09:30pm 26.2 27.5 17.6 59 5.4 E 7 9 4 5 1012.8 1012.4 0.0
17/09:00pm 27.3 28.7 17.8 56 6.0 SE 7 9 4 5 1012.7 1012.3 0.0
17/08:30pm 27.7 29.1 17.8 54 6.3 ESE 7 9 4 5 1012.2 1011.8 0.0
17/08:00pm 27.3 29.2 18.6 59 5.6 ESE 6 9 3 5 1011.9 1011.5 0.0
17/07:30pm 28.6 29.9 17.2 50 7.2 E 6 7 3 4 1011.5 1011.0 0.0
17/07:00pm 30.1 30.7 15.8 42 8.9 E 7 11 4 6 1011.2 1010.8 0.0
17/06:30pm 31.5 31.4 15.0 36 10.2 E 9 15 5 8 1010.9 1010.5 0.0
17/06:00pm 32.7 32.0 14.3 32 11.3 E 11 17 6 9 1010.7 1010.3 0.0
17/05:30pm 33.5 33.4 15.0 32 11.5 E 9 15 5 8 1010.2 1009.8 0.0
17/05:00pm 33.9 31.9 12.8 28 12.7 E 15 26 8 14 1010.0 1009.6 0.0
17/04:30pm 33.8 31.0 12.7 27 12.7 E 19 32 10 17 1009.9 1009.4 0.0
17/04:00pm 34.0 32.3 13.5 29 12.5 E 15 26 8 14 1010.0 1009.6 0.0
17/03:30pm 34.0 31.7 14.0 30 12.3 ENE 19 28 10 15 1010.1 1009.7 0.0
17/03:00pm 34.1 32.4 14.6 31 12.1 E 17 26 9 14 1010.3 1009.9 0.0
17/02:30pm 34.1 32.4 13.5 28 12.5 ESE 15 26 8 14 1010.5 1010.1 0.0
17/02:00pm 33.9 31.2 12.8 28 12.7 E 19 28 10 15 1011.0 1010.6 0.0
17/01:30pm 33.4 30.7 12.9 28 12.3 E 19 32 10 17 1011.3 1010.8 0.0
17/01:00pm 33.3 30.4 12.9 29 12.3 E 20 30 11 16 1011.9 1011.5 0.0
17/12:30pm 33.2 31.3 15.2 33 11.2 ESE 19 28 10 15 1012.5 1012.1 0.0
17/12:00pm 33.2 31.7 14.3 32 11.6 E 15 24 8 13 1012.7 1012.3 0.0
17/11:30am 32.6 31.2 15.6 36 10.6 ESE 17 32 9 17 1013.1 1012.7 0.0
17/11:00am 31.6 29.6 13.8 34 10.8 ESE 17 30 9 16 1013.4 1013.0 0.0
17/10:30am 31.2 29.9 14.8 37 10.1 ESE 15 24 8 13 1013.7 1013.2 0.0
17/10:00am 30.7 30.5 16.7 43 8.8 SE 13 22 7 12 1013.8 1013.4 0.0
17/09:30am 29.8 30.8 18.6 51 7.2 S 11 17 6 9 1013.7 1013.3 0.0
17/09:00am 29.2 30.6 19.5 56 6.3 SSW 11 17 6 9 1013.6 1013.2 0.0
17/08:30am 27.9 29.0 19.7 61 5.3 SSW 13 19 7 10 1013.6 1013.2 0.0
17/08:00am 26.6 27.9 20.2 68 4.2 SSW 13 17 7 9 1013.5 1013.1 0.0
17/07:30am 25.6 28.0 21.5 78 2.7 SW 11 15 6 8 1013.3 1012.8 0.0
17/07:00am 25.6 27.9 22.1 81 2.3 SSW 13 17 7 9 1013.0 1012.6 0.0
17/06:30am 25.4 28.3 22.5 84 2.0 SSW 11 13 6 7 1012.8 1012.4 0.0
17/06:00am 24.7 27.6 21.8 84 1.9 S 9 13 5 7 1012.7 1012.3 0.0
17/05:30am 25.2 28.3 22.1 83 2.1 SW 9 11 5 6 1012.4 1012.0 0.0
17/05:00am 23.0 26.5 22.2 95 0.5 SSW 7 9 4 5 1012.6 1012.2 0.0
17/04:30am 23.0 26.7 22.2 95 0.5 SSW 6 7 3 4 1012.6 1012.1 0.0
17/04:00am 23.2 26.6 22.0 93 0.8 S 7 7 4 4 1012.5 1012.1 0.0
17/03:30am 23.1 27.2 22.3 95 0.5 S 4 6 2 3 1012.4 1012.0 0.0
17/03:00am 23.5 28.6 22.7 95 0.5 CALM 0 0 0 0 1012.4 1012.0 0.0
17/02:30am 23.8 28.1 22.6 93 0.8 SSW 4 6 2 3 1012.5 1012.1 0.0
17/02:00am 25.3 28.6 21.8 81 2.3 SSW 7 9 4 5 1012.6 1012.2 0.0
17/01:30am 25.8 29.5 22.5 82 2.2 SW 7 11 4 6 1012.7 1012.2 0.0
17/01:00am 24.3 29.4 22.7 91 1.1 CALM 0 0 0 0 1012.7 1012.3 0.0
17/12:30am 24.5 29.8 23.1 92 0.9 CALM 0 0 0 0 1012.8 1012.4 0.0
17/12:00am 24.1 29.3 22.9 93 0.8 CALM 0 0 0 0 1012.8 1012.4 0.0
 
Date/Time
CST
Temp
°C
App
Temp
°C
Dew
Point
°C
Rel
Hum
%
Delta-T
°C
Wind Press
QNH
hPa
Press
MSL
hPa
Rain since
9am
mm
Dir  Spd
km/h
Gust
km/h
Spd
kts
Gust
kts
16/11:30pm 23.8 29.0 22.8 94 0.7 CALM 0 0 0 0 1012.8 1012.4 0.0
16/11:00pm 24.0 29.2 22.8 93 0.8 CALM 0 0 0 0 1012.8 1012.4 0.0
16/10:30pm 24.4 29.8 23.2 93 0.8 CALM 0 0 0 0 1012.7 1012.2 0.0
16/10:00pm 24.4 29.3 22.3 88 1.4 CALM 0 0 0 0 1012.7 1012.3 0.0
16/09:30pm 24.8 29.7 22.3 86 1.7 CALM 0 0 0 0 1012.6 1012.2 0.0
16/09:00pm 25.2 29.9 21.9 82 2.2 CALM 0 0 0 0 1012.5 1012.1 0.0
16/08:30pm 26.0 31.2 22.9 83 2.1 CALM 0 0 0 0 1012.1 1011.7 0.0
16/08:00pm 26.4 31.1 22.0 77 3.0 CALM 0 0 0 0 1011.8 1011.4 0.0
16/07:30pm 27.3 30.1 20.4 66 4.5 N 6 7 3 4 1011.6 1011.1 0.0
16/07:00pm 28.1 30.4 19.9 61 5.4 N 7 9 4 5 1011.1 1010.7 0.0
16/06:30pm 29.3 31.0 19.3 55 6.5 N 9 13 5 7 1010.9 1010.5 0.0
16/06:00pm 30.1 31.2 18.8 50 7.3 N 11 15 6 8 1010.6 1010.2 0.0
16/05:30pm 30.5 31.8 20.1 53 6.9 N 13 19 7 10 1010.2 1009.8 0.0
16/05:00pm 31.3 32.7 20.3 52 7.3 NNW 13 19 7 10 1010.0 1009.6 0.0
16/04:30pm 31.8 32.8 19.4 47 8.2 N 13 20 7 11 1009.8 1009.3 0.0
16/04:00pm 31.7 32.2 19.3 47 8.1 NNW 15 20 8 11 1009.9 1009.5 0.0
16/03:30pm 33.1 35.5 20.9 48 8.2 N 9 19 5 10 1010.1 1009.7 0.0
16/03:00pm 32.5 33.9 18.7 44 9.0 NE 9 17 5 9 1010.3 1009.9 0.0
16/02:30pm 33.4 32.9 14.9 32 11.5 NE 11 15 6 8 1010.6 1010.2 0.0
16/02:00pm 33.0 31.7 13.6 31 11.8 ENE 13 17 7 9 1010.9 1010.5 0.0
16/01:30pm 32.9 33.5 16.7 38 10.3 E 9 17 5 9 1011.2 1010.7 0.0
16/01:00pm 32.8 33.5 17.0 38 10.1 E 9 15 5 8 1011.7 1011.3 0.0
16/12:30pm 32.6 33.6 16.8 38 10.0 NE 7 13 4 7 1012.1 1011.7 0.0
16/12:00pm 32.0 33.3 17.5 42 9.3 ENE 7 11 4 6 1012.6 1012.2 0.0
16/11:30am 31.5 32.9 17.4 43 9.0 SE 6 9 3 5 1013.2 1012.8 0.0
16/11:00am 31.4 33.2 18.4 46 8.4 S 6 9 3 5 1013.4 1013.0 0.0
16/10:30am 30.9 33.0 17.2 43 8.7 ESE 2 7 1 4 1013.4 1012.9 0.0
16/10:00am 29.8 30.7 16.2 43 8.5 S 6 7 3 4 1013.3 1012.9 0.0
16/09:30am 28.9 29.7 15.8 45 8.1 SSE 6 9 3 5 1013.2 1012.8 0.0
16/09:00am 28.0 29.9 19.0 58 5.8 SSW 7 11 4 6 1013.0 1012.6 0.0
16/08:30am 26.7 29.2 20.3 68 4.2 S 7 7 4 4 1012.8 1012.4 0.0
16/08:00am 24.3 26.8 19.8 76 2.9 S 6 7 3 4 1012.5 1012.1 0.0
16/07:30am 22.3 24.9 20.4 89 1.2 S 7 7 4 4 1012.1 1011.6 0.0
16/07:00am 22.4 24.9 20.3 88 1.4 S 7 7 4 4 1011.8 1011.4 0.0
16/06:30am 22.7 25.7 20.8 89 1.2 SSW 6 7 3 4 1011.5 1011.1 0.0
16/06:00am 22.7 25.7 20.8 89 1.2 S 6 7 3 4 1011.4 1011.0 0.0
16/05:30am 22.0 25.1 21.0 94 0.7 S 6 7 3 4 1011.0 1010.6 0.0
16/05:00am 21.8 24.9 21.0 95 0.5 S 6 7 3 4 1010.9 1010.5 0.0
16/04:30am 21.7 24.9 21.2 97 0.3 S 6 7 3 4 1010.8 1010.3 0.0
16/04:00am 21.8 24.9 21.1 96 0.5 SSE 6 6 3 3 1010.8 1010.4 0.0
16/03:30am 21.8 25.0 20.6 93 0.8 SSE 4 7 2 4 1011.0 1010.6 0.0
16/03:00am 22.5 26.6 20.8 90 1.1 CALM 0 7 0 4 1011.2 1010.8 0.0
16/02:30am 22.8 27.4 21.8 94 0.7 CALM 0 0 0 0 1011.2 1010.8 0.0
16/02:00am 22.8 27.0 20.9 89 1.2 CALM 0 0 0 0 1011.7 1011.3 0.0
16/01:30am 23.3 27.8 21.6 90 1.1 CALM 0 0 0 0 1011.6 1011.1 0.0
16/01:00am 22.7 27.0 21.2 91 1.0 CALM 0 0 0 0 1011.9 1011.5 0.0
16/12:30am 22.8 27.1 21.1 90 1.1 CALM 0 0 0 0 1012.0 1011.6 0.0
16/12:00am 22.9 27.2 21.2 90 1.1 CALM 0 0 0 0 1011.9 1011.5 0.0
 
Date/Time
CST
Temp
°C
App
Temp
°C
Dew
Point
°C
Rel
Hum
%
Delta-T
°C
Wind Press
QNH
hPa
Press
MSL
hPa
Rain since
9am
mm
Dir  Spd
km/h
Gust
km/h
Spd
kts
Gust
kts
15/11:30pm 23.5 27.8 21.2 87 1.5 CALM 0 0 0 0 1011.8 1011.4 0.0
15/11:00pm 23.9 28.7 22.2 90 1.1 CALM 0 4 0 2 1012.1 1011.7 0.0
15/10:30pm 24.1 27.1 21.2 84 1.9 ENE 7 7 4 4 1012.1 1011.6 0.0
15/10:00pm 24.0 26.7 20.7 82 2.2 ENE 7 9 4 5 1012.0 1011.6 0.0
15/09:30pm 24.0 26.7 20.3 80 2.4 E 6 9 3 5 1011.7 1011.3 0.0
15/09:00pm 24.6 27.0 20.1 76 2.9 ENE 7 9 4 5 1011.3 1010.9 0.0
15/08:30pm 25.0 27.8 20.5 76 2.9 ENE 6 6 3 3 1011.0 1010.6 0.0
15/08:00pm 26.0 29.2 21.2 75 3.2 NE 6 7 3 4 1010.6 1010.2 0.0
15/07:30pm 27.0 29.2 19.1 62 5.1 NNE 6 7 3 4 1010.0 1009.5 0.0
15/07:00pm 28.5 30.4 18.9 56 6.2 N 7 9 4 5 1009.7 1009.3 0.0
15/06:30pm 29.8 31.2 18.6 51 7.2 N 9 15 5 8 1009.4 1009.0 0.0
15/06:00pm 30.8 31.8 17.8 45 8.3 N 9 15 5 8 1009.0 1008.6 0.0
15/05:30pm 31.1 30.9 16.7 42 9.1 NNW 13 17 7 9 1008.7 1008.3 0.0
15/05:00pm 31.3 32.3 18.6 46 8.2 NNW 11 17 6 9 1008.5 1008.1 0.0
15/04:30pm 32.1 33.3 18.3 44 8.9 NNW 9 15 5 8 1008.4 1007.9 0.0
15/04:00pm 32.1 34.0 19.0 45 8.6 NNW 7 13 4 7 1008.4 1008.0 0.0
15/03:30pm 32.5 34.0 19.7 46 8.5 NNW 11 19 6 10 1008.6 1008.2 0.0
15/03:00pm 32.0 32.4 18.9 45 8.5 N 15 20 8 11 1009.0 1008.6 0.0
15/02:30pm 32.3 33.9 19.9 48 8.2 N 11 17 6 9 1009.4 1009.0 0.0
15/02:00pm 32.5 34.7 20.4 49 8.1 N 9 13 5 7 1009.6 1009.2 0.0
15/01:30pm 33.3 31.1 9.4 23 13.6 ENE 11 17 6 9 1009.9 1009.4 0.0
15/01:00pm 33.3 31.3 8.7 22 13.9 E 9 15 5 8 1010.4 1010.0 0.0
15/12:30pm 32.7 33.2 16.5 37 10.2 NE 9 13 5 7 1010.8 1010.4 0.0
15/12:00pm 32.5 34.3 18.7 44 9.0 SSE 7 17 4 9 1011.3 1010.9 0.0
15/11:30am 32.0 34.7 20.3 50 7.8 S 6 13 3 7 1011.9 1011.5 0.0
15/11:00am 30.8 33.9 21.0 56 6.6 NNE 6 9 3 5 1012.2 1011.8 0.0
15/10:30am 30.8 35.2 23.5 65 5.1 SSW 6 13 3 7 1012.3 1011.8 0.0

Other formats

Comma delimited format used in spreadsheet applications
http://www.bom.gov.au/fwo/IDD60801/IDD60801.95101.axf

JavaScript Object Notation format (JSON) in row-major order
http://www.bom.gov.au/fwo/IDD60801/IDD60801.95101.json

Data quality

Most of these data are generated automatically and are frequently updated. Quality checks on data are not normally performed. It is possible for incorrect values to appear. Refer to information at About Latest Weather Observations and please check the disclaimer before using these data.